sensor_id;sensor_type;location;lat;lon;timestamp;temperature;humidity
27544;DHT22;17996;51.056;3.656;2023-04-01T00:00:17;10.80;99.90
27544;DHT22;17996;51.056;3.656;2023-04-01T00:02:43;10.80;99.90
27544;DHT22;17996;51.056;3.656;2023-04-01T00:05:10;10.80;99.90
27544;DHT22;17996;51.056;3.656;2023-04-01T00:07:36;10.80;99.90
27544;DHT22;17996;51.056;3.656;2023-04-01T00:10:03;10.80;99.90
27544;DHT22;17996;51.056;3.656;2023-04-01T00:12:29;10.80;99.90
27544;DHT22;17996;51.056;3.656;2023-04-01T00:14:55;10.80;99.90
27544;DHT22;17996;51.056;3.656;2023-04-01T00:17:21;10.80;99.90
27544;DHT22;17996;51.056;3.656;2023-04-01T00:19:47;10.80;99.90
27544;DHT22;17996;51.056;3.656;2023-04-01T00:22:13;10.80;99.90
27544;DHT22;17996;51.056;3.656;2023-04-01T00:24:39;10.80;99.90
27544;DHT22;17996;51.056;3.656;2023-04-01T00:27:05;10.70;99.90
27544;DHT22;17996;51.056;3.656;2023-04-01T00:29:31;10.70;99.90
27544;DHT22;17996;51.056;3.656;2023-04-01T00:31:58;10.70;99.90
27544;DHT22;17996;51.056;3.656;2023-04-01T00:34:24;10.70;99.90
27544;DHT22;17996;51.056;3.656;2023-04-01T00:36:53;10.70;99.90
27544;DHT22;17996;51.056;3.656;2023-04-01T00:39:20;10.70;99.90
27544;DHT22;17996;51.056;3.656;2023-04-01T00:41:47;10.80;99.90
27544;DHT22;17996;51.056;3.656;2023-04-01T00:44:24;10.80;99.90
27544;DHT22;17996;51.056;3.656;2023-04-01T00:46:51;10.70;99.90
27544;DHT22;17996;51.056;3.656;2023-04-01T00:49:20;10.70;99.90
27544;DHT22;17996;51.056;3.656;2023-04-01T00:51:47;10.60;99.90
27544;DHT22;17996;51.056;3.656;2023-04-01T00:54:15;10.60;99.90
27544;DHT22;17996;51.056;3.656;2023-04-01T00:57:02;10.60;99.90
27544;DHT22;17996;51.056;3.656;2023-04-01T00:59:35;10.60;99.90
27544;DHT22;17996;51.056;3.656;2023-04-01T01:02:05;10.60;99.90
27544;DHT22;17996;51.056;3.656;2023-04-01T01:04:34;10.50;99.90
27544;DHT22;17996;51.056;3.656;2023-04-01T01:09:30;10.50;99.90
27544;DHT22;17996;51.056;3.656;2023-04-01T01:20:17;10.40;99.90
27544;DHT22;17996;51.056;3.656;2023-04-01T01:22:48;10.40;99.90
27544;DHT22;17996;51.056;3.656;2023-04-01T01:31:07;10.40;99.90
27544;DHT22;17996;51.056;3.656;2023-04-01T01:33:46;10.40;99.90
27544;DHT22;17996;51.056;3.656;2023-04-01T01:36:14;10.40;99.90
27544;DHT22;17996;51.056;3.656;2023-04-01T01:38:41;10.40;99.90
27544;DHT22;17996;51.056;3.656;2023-04-01T01:41:08;10.40;99.90
27544;DHT22;17996;51.056;3.656;2023-04-01T01:43:43;10.40;99.90
27544;DHT22;17996;51.056;3.656;2023-04-01T01:46:15;10.40;99.90
27544;DHT22;17996;51.056;3.656;2023-04-01T01:48:42;10.40;99.90
27544;DHT22;17996;51.056;3.656;2023-04-01T01:51:09;10.40;99.90
27544;DHT22;17996;51.056;3.656;2023-04-01T01:53:35;10.40;99.90
27544;DHT22;17996;51.056;3.656;2023-04-01T01:56:01;10.40;99.90
27544;DHT22;17996;51.056;3.656;2023-04-01T01:58:34;10.40;99.90
27544;DHT22;17996;51.056;3.656;2023-04-01T02:01:09;10.40;99.90
27544;DHT22;17996;51.056;3.656;2023-04-01T02:03:38;10.40;99.90
27544;DHT22;17996;51.056;3.656;2023-04-01T02:06:08;10.40;99.90
27544;DHT22;17996;51.056;3.656;2023-04-01T02:08:39;10.40;99.90
27544;DHT22;17996;51.056;3.656;2023-04-01T02:11:12;10.40;99.90
27544;DHT22;17996;51.056;3.656;2023-04-01T02:13:47;10.40;99.90
27544;DHT22;17996;51.056;3.656;2023-04-01T02:16:20;10.40;99.90
27544;DHT22;17996;51.056;3.656;2023-04-01T02:18:50;10.40;99.90
27544;DHT22;17996;51.056;3.656;2023-04-01T02:21:20;10.40;99.90
27544;DHT22;17996;51.056;3.656;2023-04-01T02:23:47;10.40;99.90
27544;DHT22;17996;51.056;3.656;2023-04-01T02:26:13;10.40;99.90
27544;DHT22;17996;51.056;3.656;2023-04-01T02:28:40;10.40;99.90
27544;DHT22;17996;51.056;3.656;2023-04-01T02:31:08;10.40;99.90
27544;DHT22;17996;51.056;3.656;2023-04-01T02:33:34;10.40;99.90
27544;DHT22;17996;51.056;3.656;2023-04-01T02:36:00;10.40;99.90
27544;DHT22;17996;51.056;3.656;2023-04-01T02:38:26;10.30;99.90
27544;DHT22;17996;51.056;3.656;2023-04-01T02:40:59;10.30;99.90
27544;DHT22;17996;51.056;3.656;2023-04-01T02:43:25;10.30;99.90
27544;DHT22;17996;51.056;3.656;2023-04-01T02:45:51;10.30;99.90
27544;DHT22;17996;51.056;3.656;2023-04-01T02:48:17;10.30;99.90
27544;DHT22;17996;51.056;3.656;2023-04-01T02:50:42;10.30;99.90
27544;DHT22;17996;51.056;3.656;2023-04-01T02:53:08;10.30;99.90
27544;DHT22;17996;51.056;3.656;2023-04-01T02:55:34;10.30;99.90
27544;DHT22;17996;51.056;3.656;2023-04-01T02:58:00;10.30;99.90
27544;DHT22;17996;51.056;3.656;2023-04-01T03:00:26;10.30;99.90
27544;DHT22;17996;51.056;3.656;2023-04-01T03:02:52;10.30;99.90
27544;DHT22;17996;51.056;3.656;2023-04-01T03:05:18;10.30;99.90
27544;DHT22;17996;51.056;3.656;2023-04-01T03:07:44;10.30;99.90
27544;DHT22;17996;51.056;3.656;2023-04-01T03:10:10;10.30;99.90
27544;DHT22;17996;51.056;3.656;2023-04-01T03:12:36;10.30;99.90
27544;DHT22;17996;51.056;3.656;2023-04-01T03:15:03;10.40;99.90
27544;DHT22;17996;51.056;3.656;2023-04-01T03:17:28;10.40;99.90
27544;DHT22;17996;51.056;3.656;2023-04-01T03:19:54;10.40;99.90
27544;DHT22;17996;51.056;3.656;2023-04-01T03:22:20;10.30;99.90
27544;DHT22;17996;51.056;3.656;2023-04-01T03:24:48;10.30;99.90
27544;DHT22;17996;51.056;3.656;2023-04-01T03:27:14;10.40;99.90
27544;DHT22;17996;51.056;3.656;2023-04-01T03:29:39;10.30;99.90
27544;DHT22;17996;51.056;3.656;2023-04-01T03:32:05;10.30;99.90
27544;DHT22;17996;51.056;3.656;2023-04-01T03:34:31;10.20;99.90
27544;DHT22;17996;51.056;3.656;2023-04-01T03:36:57;10.20;99.90
27544;DHT22;17996;51.056;3.656;2023-04-01T03:39:23;10.10;99.90
27544;DHT22;17996;51.056;3.656;2023-04-01T03:41:49;10.10;99.90
27544;DHT22;17996;51.056;3.656;2023-04-01T03:44:15;10.10;99.90
27544;DHT22;17996;51.056;3.656;2023-04-01T03:46:41;10.10;99.90
27544;DHT22;17996;51.056;3.656;2023-04-01T03:49:08;10.10;99.90
27544;DHT22;17996;51.056;3.656;2023-04-01T03:51:44;10.10;99.90
27544;DHT22;17996;51.056;3.656;2023-04-01T03:54:10;10.10;99.90
27544;DHT22;17996;51.056;3.656;2023-04-01T03:56:37;10.20;99.90
27544;DHT22;17996;51.056;3.656;2023-04-01T03:59:05;10.10;99.90
27544;DHT22;17996;51.056;3.656;2023-04-01T04:01:31;10.10;99.90
27544;DHT22;17996;51.056;3.656;2023-04-01T04:03:57;10.10;99.90
27544;DHT22;17996;51.056;3.656;2023-04-01T04:06:24;10.10;99.90
27544;DHT22;17996;51.056;3.656;2023-04-01T04:08:50;10.10;99.90
27544;DHT22;17996;51.056;3.656;2023-04-01T04:11:16;10.10;99.90
27544;DHT22;17996;51.056;3.656;2023-04-01T04:13:42;10.10;99.90
27544;DHT22;17996;51.056;3.656;2023-04-01T04:16:09;10.10;99.90
27544;DHT22;17996;51.056;3.656;2023-04-01T04:18:36;10.10;99.90
27544;DHT22;17996;51.056;3.656;2023-04-01T04:21:02;10.10;99.90
27544;DHT22;17996;51.056;3.656;2023-04-01T04:23:28;10.00;99.90
27544;DHT22;17996;51.056;3.656;2023-04-01T04:25:56;10.00;99.90
27544;DHT22;17996;51.056;3.656;2023-04-01T04:28:24;10.10;99.90
27544;DHT22;17996;51.056;3.656;2023-04-01T04:30:50;10.10;99.90
27544;DHT22;17996;51.056;3.656;2023-04-01T04:33:15;10.10;99.90
27544;DHT22;17996;51.056;3.656;2023-04-01T04:35:41;10.30;99.90
27544;DHT22;17996;51.056;3.656;2023-04-01T04:38:07;10.20;99.90
27544;DHT22;17996;51.056;3.656;2023-04-01T04:40:32;10.10;99.90
27544;DHT22;17996;51.056;3.656;2023-04-01T04:42:58;10.10;99.90
27544;DHT22;17996;51.056;3.656;2023-04-01T04:45:23;10.10;99.90
27544;DHT22;17996;51.056;3.656;2023-04-01T04:47:49;10.10;99.90
27544;DHT22;17996;51.056;3.656;2023-04-01T04:50:16;10.20;99.90
27544;DHT22;17996;51.056;3.656;2023-04-01T04:52:42;10.10;99.90
27544;DHT22;17996;51.056;3.656;2023-04-01T04:55:08;10.10;99.90
27544;DHT22;17996;51.056;3.656;2023-04-01T04:57:33;10.00;99.90
27544;DHT22;17996;51.056;3.656;2023-04-01T04:59:59;10.00;99.90
27544;DHT22;17996;51.056;3.656;2023-04-01T05:02:25;10.00;99.90
27544;DHT22;17996;51.056;3.656;2023-04-01T05:04:50;10.00;99.90
27544;DHT22;17996;51.056;3.656;2023-04-01T05:07:16;10.00;99.90
27544;DHT22;17996;51.056;3.656;2023-04-01T05:09:41;9.90;99.90
27544;DHT22;17996;51.056;3.656;2023-04-01T05:12:07;10.00;99.90
27544;DHT22;17996;51.056;3.656;2023-04-01T05:14:33;9.90;99.90
27544;DHT22;17996;51.056;3.656;2023-04-01T05:16:58;9.90;99.90
27544;DHT22;17996;51.056;3.656;2023-04-01T05:19:24;9.90;99.90
27544;DHT22;17996;51.056;3.656;2023-04-01T05:21:50;9.90;99.90
27544;DHT22;17996;51.056;3.656;2023-04-01T05:24:15;9.90;99.90
27544;DHT22;17996;51.056;3.656;2023-04-01T05:26:41;9.90;99.90
27544;DHT22;17996;51.056;3.656;2023-04-01T05:29:07;10.10;99.90
27544;DHT22;17996;51.056;3.656;2023-04-01T05:31:32;10.00;99.90
27544;DHT22;17996;51.056;3.656;2023-04-01T05:33:58;9.90;99.90
27544;DHT22;17996;51.056;3.656;2023-04-01T05:36:24;9.90;99.90
27544;DHT22;17996;51.056;3.656;2023-04-01T05:38:50;9.90;99.90
27544;DHT22;17996;51.056;3.656;2023-04-01T05:41:16;10.10;99.90
27544;DHT22;17996;51.056;3.656;2023-04-01T05:43:41;10.10;99.90
27544;DHT22;17996;51.056;3.656;2023-04-01T05:46:08;9.90;99.90
27544;DHT22;17996;51.056;3.656;2023-04-01T05:48:34;9.90;99.90
27544;DHT22;17996;51.056;3.656;2023-04-01T05:51:01;9.90;99.90
27544;DHT22;17996;51.056;3.656;2023-04-01T05:53:27;9.90;99.90
27544;DHT22;17996;51.056;3.656;2023-04-01T05:55:52;9.90;99.90
27544;DHT22;17996;51.056;3.656;2023-04-01T05:58:18;9.90;99.90
27544;DHT22;17996;51.056;3.656;2023-04-01T06:00:44;9.90;99.90
27544;DHT22;17996;51.056;3.656;2023-04-01T06:03:09;10.00;99.90
27544;DHT22;17996;51.056;3.656;2023-04-01T06:05:42;10.00;99.90
27544;DHT22;17996;51.056;3.656;2023-04-01T06:08:16;10.00;99.90
27544;DHT22;17996;51.056;3.656;2023-04-01T06:13:30;9.90;99.90
27544;DHT22;17996;51.056;3.656;2023-04-01T06:16:18;10.00;99.90
27544;DHT22;17996;51.056;3.656;2023-04-01T06:19:29;9.90;99.90
27544;DHT22;17996;51.056;3.656;2023-04-01T06:24:55;9.90;99.90
27544;DHT22;17996;51.056;3.656;2023-04-01T06:28:07;9.90;99.90
27544;DHT22;17996;51.056;3.656;2023-04-01T06:39:35;9.80;99.90
27544;DHT22;17996;51.056;3.656;2023-04-01T06:44:40;9.90;99.90
27544;DHT22;17996;51.056;3.656;2023-04-01T06:47:21;9.90;99.90
27544;DHT22;17996;51.056;3.656;2023-04-01T06:50:32;9.90;99.90
27544;DHT22;17996;51.056;3.656;2023-04-01T06:55:45;9.80;99.90
27544;DHT22;17996;51.056;3.656;2023-04-01T06:58:23;9.80;99.90
27544;DHT22;17996;51.056;3.656;2023-04-01T07:01:02;9.80;99.90
27544;DHT22;17996;51.056;3.656;2023-04-01T07:04:33;9.80;99.90
27544;DHT22;17996;51.056;3.656;2023-04-01T07:06:31;9.80;99.90
27544;DHT22;17996;51.056;3.656;2023-04-01T07:09:00;9.90;99.90
27544;DHT22;17996;51.056;3.656;2023-04-01T07:11:31;9.90;99.90
27544;DHT22;17996;51.056;3.656;2023-04-01T07:14:20;9.90;99.90
27544;DHT22;17996;51.056;3.656;2023-04-01T07:17:02;9.90;99.90
27544;DHT22;17996;51.056;3.656;2023-04-01T07:19:51;9.90;99.90
27544;DHT22;17996;51.056;3.656;2023-04-01T07:24:50;9.90;99.90
27544;DHT22;17996;51.056;3.656;2023-04-01T07:27:16;9.90;99.90
27544;DHT22;17996;51.056;3.656;2023-04-01T07:29:42;10.00;99.90
27544;DHT22;17996;51.056;3.656;2023-04-01T07:32:39;10.00;99.90
27544;DHT22;17996;51.056;3.656;2023-04-01T07:35:16;9.90;99.90
27544;DHT22;17996;51.056;3.656;2023-04-01T07:38:26;9.90;99.90
27544;DHT22;17996;51.056;3.656;2023-04-01T07:49:03;9.90;99.90
27544;DHT22;17996;51.056;3.656;2023-04-01T07:52:10;9.90;99.90
27544;DHT22;17996;51.056;3.656;2023-04-01T07:54:38;9.90;99.90
27544;DHT22;17996;51.056;3.656;2023-04-01T07:57:15;9.90;99.90
27544;DHT22;17996;51.056;3.656;2023-04-01T07:59:50;9.90;99.90
27544;DHT22;17996;51.056;3.656;2023-04-01T08:05:19;9.90;99.90
27544;DHT22;17996;51.056;3.656;2023-04-01T08:08:19;9.90;99.90
27544;DHT22;17996;51.056;3.656;2023-04-01T08:22:43;10.10;99.90
27544;DHT22;17996;51.056;3.656;2023-04-01T08:25:18;10.00;99.90
27544;DHT22;17996;51.056;3.656;2023-04-01T08:27:48;10.10;99.90
27544;DHT22;17996;51.056;3.656;2023-04-01T08:30:19;10.10;99.90
27544;DHT22;17996;51.056;3.656;2023-04-01T08:32:51;10.10;99.90
27544;DHT22;17996;51.056;3.656;2023-04-01T08:35:28;10.10;99.90
27544;DHT22;17996;51.056;3.656;2023-04-01T08:38:00;10.10;99.90
27544;DHT22;17996;51.056;3.656;2023-04-01T08:40:51;10.10;99.90
27544;DHT22;17996;51.056;3.656;2023-04-01T09:10:28;10.30;99.90
27544;DHT22;17996;51.056;3.656;2023-04-01T09:13:29;10.30;99.90
27544;DHT22;17996;51.056;3.656;2023-04-01T09:27:19;10.20;99.90
27544;DHT22;17996;51.056;3.656;2023-04-01T09:33:23;10.20;99.90
27544;DHT22;17996;51.056;3.656;2023-04-01T09:38:57;10.10;99.90
27544;DHT22;17996;51.056;3.656;2023-04-01T09:41:27;10.10;99.90
27544;DHT22;17996;51.056;3.656;2023-04-01T09:49:43;10.00;99.90
27544;DHT22;17996;51.056;3.656;2023-04-01T09:52:42;10.00;99.90
27544;DHT22;17996;51.056;3.656;2023-04-01T10:07:04;10.10;99.90
27544;DHT22;17996;51.056;3.656;2023-04-01T10:15:09;10.10;99.90
27544;DHT22;17996;51.056;3.656;2023-04-01T10:26:12;10.30;99.90
27544;DHT22;17996;51.056;3.656;2023-04-01T10:43:23;10.60;99.90
27544;DHT22;17996;51.056;3.656;2023-04-01T10:49:10;10.70;99.90
27544;DHT22;17996;51.056;3.656;2023-04-01T11:03:15;10.40;99.90
27544;DHT22;17996;51.056;3.656;2023-04-01T11:17:03;10.30;99.90
27544;DHT22;17996;51.056;3.656;2023-04-01T11:22:45;10.40;99.90
27544;DHT22;17996;51.056;3.656;2023-04-01T11:25:49;10.50;99.90
27544;DHT22;17996;51.056;3.656;2023-04-01T11:32:02;10.40;99.90
27544;DHT22;17996;51.056;3.656;2023-04-01T11:45:22;10.30;99.90
27544;DHT22;17996;51.056;3.656;2023-04-01T11:57:13;10.40;99.90
27544;DHT22;17996;51.056;3.656;2023-04-01T12:02:47;10.20;99.90
27544;DHT22;17996;51.056;3.656;2023-04-01T12:15:56;10.30;99.90
27544;DHT22;17996;51.056;3.656;2023-04-01T12:21:20;10.30;99.90
27544;DHT22;17996;51.056;3.656;2023-04-01T12:26:43;10.40;99.90
27544;DHT22;17996;51.056;3.656;2023-04-01T12:32:01;10.50;99.90
27544;DHT22;17996;51.056;3.656;2023-04-01T12:51:29;10.10;99.90
27544;DHT22;17996;51.056;3.656;2023-04-01T13:08:04;10.20;99.90
27544;DHT22;17996;51.056;3.656;2023-04-01T13:11:07;10.20;99.90
27544;DHT22;17996;51.056;3.656;2023-04-01T13:14:09;10.20;99.90
27544;DHT22;17996;51.056;3.656;2023-04-01T13:19:31;10.20;99.90
27544;DHT22;17996;51.056;3.656;2023-04-01T13:22:22;10.20;99.90
27544;DHT22;17996;51.056;3.656;2023-04-01T13:25:35;10.20;99.90
27544;DHT22;17996;51.056;3.656;2023-04-01T13:27:44;10.20;99.90
27544;DHT22;17996;51.056;3.656;2023-04-01T13:30:21;10.20;99.90
27544;DHT22;17996;51.056;3.656;2023-04-01T13:38:05;10.10;99.90
27544;DHT22;17996;51.056;3.656;2023-04-01T13:40:58;10.10;99.90
27544;DHT22;17996;51.056;3.656;2023-04-01T13:43:39;10.20;99.90
27544;DHT22;17996;51.056;3.656;2023-04-01T13:49:04;10.20;99.90
27544;DHT22;17996;51.056;3.656;2023-04-01T14:00:17;10.10;99.90
27544;DHT22;17996;51.056;3.656;2023-04-01T14:09:00;10.00;99.90
27544;DHT22;17996;51.056;3.656;2023-04-01T14:35:49;9.90;99.90
27544;DHT22;17996;51.056;3.656;2023-04-01T14:38:53;9.90;99.90
27544;DHT22;17996;51.056;3.656;2023-04-01T14:50:06;9.90;99.90
27544;DHT22;17996;51.056;3.656;2023-04-01T14:52:36;9.90;99.90
27544;DHT22;17996;51.056;3.656;2023-04-01T14:55:28;9.90;99.90
27544;DHT22;17996;51.056;3.656;2023-04-01T14:58:12;9.90;99.90
27544;DHT22;17996;51.056;3.656;2023-04-01T15:00:48;10.00;99.90
27544;DHT22;17996;51.056;3.656;2023-04-01T15:03:36;10.00;99.90
27544;DHT22;17996;51.056;3.656;2023-04-01T15:06:25;9.90;99.90
27544;DHT22;17996;51.056;3.656;2023-04-01T15:25:23;10.00;99.90
27544;DHT22;17996;51.056;3.656;2023-04-01T15:28:20;10.00;99.90
27544;DHT22;17996;51.056;3.656;2023-04-01T15:44:48;10.00;99.90
27544;DHT22;17996;51.056;3.656;2023-04-01T16:06:43;9.90;99.90
27544;DHT22;17996;51.056;3.656;2023-04-01T16:12:30;10.00;99.90
27544;DHT22;17996;51.056;3.656;2023-04-01T16:20:46;9.90;99.90
27544;DHT22;17996;51.056;3.656;2023-04-01T16:23:29;9.90;99.90
27544;DHT22;17996;51.056;3.656;2023-04-01T16:26:13;9.90;99.90
27544;DHT22;17996;51.056;3.656;2023-04-01T16:28:52;9.90;99.90
27544;DHT22;17996;51.056;3.656;2023-04-01T16:36:32;9.80;99.90
27544;DHT22;17996;51.056;3.656;2023-04-01T16:39:37;9.90;99.90
27544;DHT22;17996;51.056;3.656;2023-04-01T16:42:20;9.90;99.90
27544;DHT22;17996;51.056;3.656;2023-04-01T16:47:32;9.90;99.90
27544;DHT22;17996;51.056;3.656;2023-04-01T16:50:24;10.00;99.90
27544;DHT22;17996;51.056;3.656;2023-04-01T16:53:08;9.90;99.90
27544;DHT22;17996;51.056;3.656;2023-04-01T17:01:16;9.70;99.90
27544;DHT22;17996;51.056;3.656;2023-04-01T17:03:47;9.70;99.90
27544;DHT22;17996;51.056;3.656;2023-04-01T17:16:51;9.80;99.90
27544;DHT22;17996;51.056;3.656;2023-04-01T17:22:31;9.80;99.90
27544;DHT22;17996;51.056;3.656;2023-04-01T17:41:39;9.50;99.90
27544;DHT22;17996;51.056;3.656;2023-04-01T17:47:41;9.40;99.90
27544;DHT22;17996;51.056;3.656;2023-04-01T17:50:51;9.40;99.90
27544;DHT22;17996;51.056;3.656;2023-04-01T17:53:32;9.40;99.90
27544;DHT22;17996;51.056;3.656;2023-04-01T17:56:18;9.30;99.90
27544;DHT22;17996;51.056;3.656;2023-04-01T18:01:24;9.30;99.90
27544;DHT22;17996;51.056;3.656;2023-04-01T18:04:08;9.30;99.90
27544;DHT22;17996;51.056;3.656;2023-04-01T18:06:55;9.30;99.90
27544;DHT22;17996;51.056;3.656;2023-04-01T18:24:18;9.30;99.90
27544;DHT22;17996;51.056;3.656;2023-04-01T18:27:03;9.20;99.90
27544;DHT22;17996;51.056;3.656;2023-04-01T18:29:47;9.10;99.90
27544;DHT22;17996;51.056;3.656;2023-04-01T18:32:36;9.10;99.90
27544;DHT22;17996;51.056;3.656;2023-04-01T18:38:04;9.10;99.90
27544;DHT22;17996;51.056;3.656;2023-04-01T18:49:20;9.10;99.90
27544;DHT22;17996;51.056;3.656;2023-04-01T18:51:57;9.10;99.90
27544;DHT22;17996;51.056;3.656;2023-04-01T18:54:31;9.10;99.90
27544;DHT22;17996;51.056;3.656;2023-04-01T18:57:03;9.10;99.90
27544;DHT22;17996;51.056;3.656;2023-04-01T19:00:03;9.20;99.90
27544;DHT22;17996;51.056;3.656;2023-04-01T19:02:36;9.10;99.90
27544;DHT22;17996;51.056;3.656;2023-04-01T19:05:19;9.10;99.90
27544;DHT22;17996;51.056;3.656;2023-04-01T19:07:53;9.00;99.90
27544;DHT22;17996;51.056;3.656;2023-04-01T19:16:21;9.00;99.90
27544;DHT22;17996;51.056;3.656;2023-04-01T19:21:42;8.90;99.90
27544;DHT22;17996;51.056;3.656;2023-04-01T19:27:32;8.90;99.90
27544;DHT22;17996;51.056;3.656;2023-04-01T19:33:12;9.00;99.90
27544;DHT22;17996;51.056;3.656;2023-04-01T19:35:55;8.90;99.90
27544;DHT22;17996;51.056;3.656;2023-04-01T19:38:52;8.90;99.90
27544;DHT22;17996;51.056;3.656;2023-04-01T19:41:44;8.90;99.90
27544;DHT22;17996;51.056;3.656;2023-04-01T19:44:46;8.90;99.90
27544;DHT22;17996;51.056;3.656;2023-04-01T19:47:39;8.90;99.90
27544;DHT22;17996;51.056;3.656;2023-04-01T19:50:31;8.90;99.90
27544;DHT22;17996;51.056;3.656;2023-04-01T19:53:11;8.90;99.90
27544;DHT22;17996;51.056;3.656;2023-04-01T19:58:55;8.90;99.90
27544;DHT22;17996;51.056;3.656;2023-04-01T20:04:33;8.90;99.90
27544;DHT22;17996;51.056;3.656;2023-04-01T20:07:13;8.80;99.90
27544;DHT22;17996;51.056;3.656;2023-04-01T20:10:35;8.80;99.90
27544;DHT22;17996;51.056;3.656;2023-04-01T20:16:00;8.90;99.90
27544;DHT22;17996;51.056;3.656;2023-04-01T20:23:59;8.90;99.90
27544;DHT22;17996;51.056;3.656;2023-04-01T20:26:30;8.80;99.90
27544;DHT22;17996;51.056;3.656;2023-04-01T20:34:33;8.80;99.90
27544;DHT22;17996;51.056;3.656;2023-04-01T20:45:28;9.00;99.90
27544;DHT22;17996;51.056;3.656;2023-04-01T20:48:07;8.90;99.90
27544;DHT22;17996;51.056;3.656;2023-04-01T20:53:28;8.90;99.90
27544;DHT22;17996;51.056;3.656;2023-04-01T21:04:27;8.80;99.90
27544;DHT22;17996;51.056;3.656;2023-04-01T21:06:58;8.80;99.90
27544;DHT22;17996;51.056;3.656;2023-04-01T21:09:33;8.80;99.90
27544;DHT22;17996;51.056;3.656;2023-04-01T21:12:14;8.70;99.90
27544;DHT22;17996;51.056;3.656;2023-04-01T21:29:04;8.90;99.90
27544;DHT22;17996;51.056;3.656;2023-04-01T22:00:25;8.80;99.90
27544;DHT22;17996;51.056;3.656;2023-04-01T22:08:41;8.80;99.90
27544;DHT22;17996;51.056;3.656;2023-04-01T22:12:09;8.70;99.90
27544;DHT22;17996;51.056;3.656;2023-04-01T22:17:21;8.70;99.90
27544;DHT22;17996;51.056;3.656;2023-04-01T22:20:23;8.70;99.90
27544;DHT22;17996;51.056;3.656;2023-04-01T22:23:16;8.70;99.90
27544;DHT22;17996;51.056;3.656;2023-04-01T22:26:15;8.70;99.90
27544;DHT22;17996;51.056;3.656;2023-04-01T22:29:10;8.70;99.90
27544;DHT22;17996;51.056;3.656;2023-04-01T22:31:51;8.80;99.90
27544;DHT22;17996;51.056;3.656;2023-04-01T22:50:21;8.80;99.90
27544;DHT22;17996;51.056;3.656;2023-04-01T22:55:47;8.80;99.90
27544;DHT22;17996;51.056;3.656;2023-04-01T22:58:28;8.80;99.90
27544;DHT22;17996;51.056;3.656;2023-04-01T23:01:01;8.80;99.90
27544;DHT22;17996;51.056;3.656;2023-04-01T23:03:40;8.70;99.90
27544;DHT22;17996;51.056;3.656;2023-04-01T23:06:10;8.80;99.90
27544;DHT22;17996;51.056;3.656;2023-04-01T23:09:02;8.80;99.90
27544;DHT22;17996;51.056;3.656;2023-04-01T23:11:32;8.80;99.90
27544;DHT22;17996;51.056;3.656;2023-04-01T23:16:51;8.70;99.90
27544;DHT22;17996;51.056;3.656;2023-04-01T23:19:49;8.70;99.90
27544;DHT22;17996;51.056;3.656;2023-04-01T23:36:02;8.70;99.90
27544;DHT22;17996;51.056;3.656;2023-04-01T23:38:51;8.70;99.90
27544;DHT22;17996;51.056;3.656;2023-04-01T23:41:27;8.80;99.90
27544;DHT22;17996;51.056;3.656;2023-04-01T23:44:02;8.70;99.90
27544;DHT22;17996;51.056;3.656;2023-04-01T23:46:29;8.70;99.90
27544;DHT22;17996;51.056;3.656;2023-04-01T23:48:58;8.80;99.90
27544;DHT22;17996;51.056;3.656;2023-04-01T23:51:29;8.80;99.90
27544;DHT22;17996;51.056;3.656;2023-04-01T23:54:14;8.80;99.90
27544;DHT22;17996;51.056;3.656;2023-04-01T23:56:48;8.90;99.90
27544;DHT22;17996;51.056;3.656;2023-04-01T23:59:27;8.80;99.90
